Time;durP1;ratioP1;P1;durP2;ratioP2;P2;SDS_P1;SDS_P2;PMS_P1;PMS_P2;Temp;Humidity;BMP_temperature;BMP_pressure;BME280_temperature;BME280_humidity;BME280_pressure;Samples;Min_cycle;Max_cycle;Signal;HPM_P1;HPM_P2
2021/01/06 00:00:19;;;;;;;57.28;24.90;;;;;;;;;;5051782;28;20029;-54
2021/01/06 00:02:45;;;;;;;40.92;17.73;;;;;;;;;;5054741;28;20021;-55
2021/01/06 00:05:13;;;;;;;37.03;15.75;;;;;;;;;;5071758;28;20111;-54
2021/01/06 00:07:46;;;;;;;35.28;16.58;;;;;;;;;;5071802;28;20055;-54
2021/01/06 00:10:16;;;;;;;18.45;9.60;;;;;;;;;;5065424;28;20025;-53
2021/01/06 00:12:42;;;;;;;49.15;21.33;;;;;;;;;;5052053;28;20361;-57
2021/01/06 00:15:12;;;;;;;47.28;21.02;;;;;;;;;;5032454;28;20696;-52
2021/01/06 00:17:38;;;;;;;23.35;10.65;;;;;;;;;;5050939;28;20025;-55
2021/01/06 00:20:07;;;;;;;10.98;5.65;;;;;;;;;;5055901;28;20029;-53
2021/01/06 00:22:33;;;;;;;13.55;5.85;;;;;;;;;;5057666;28;20025;-55
2021/01/06 00:24:59;;;;;;;16.67;8.40;;;;;;;;;;5069505;28;20154;-54
2021/01/06 00:27:25;;;;;;;61.78;24.08;;;;;;;;;;5071700;28;20391;-56
2021/01/06 00:29:51;;;;;;;76.15;31.90;;;;;;;;;;5069863;28;20024;-51
2021/01/06 00:32:19;;;;;;;57.28;25.63;;;;;;;;;;5058896;28;20103;-53
2021/01/06 00:34:45;;;;;;;60.70;25.77;;;;;;;;;;5059875;28;20037;-52
2021/01/06 00:37:13;;;;;;;33.33;14.55;;;;;;;;;;5052305;28;20021;-52
2021/01/06 00:39:39;;;;;;;35.85;17.73;;;;;;;;;;5051189;28;21684;-52
2021/01/06 00:42:05;;;;;;;35.13;17.50;;;;;;;;;;5054743;28;20701;-53
2021/01/06 00:44:31;;;;;;;30.90;16.60;;;;;;;;;;5052570;28;20037;-53
2021/01/06 00:46:57;;;;;;;45.83;22.33;;;;;;;;;;5066134;28;20411;-53
2021/01/06 00:49:23;;;;;;;45.92;24.25;;;;;;;;;;5066506;28;20029;-54
2021/01/06 00:51:50;;;;;;;26.30;13.98;;;;;;;;;;5053322;28;20380;-55
2021/01/06 00:54:16;;;;;;;25.60;12.07;;;;;;;;;;5066230;28;20017;-51
2021/01/06 00:56:42;;;;;;;27.35;14.98;;;;;;;;;;5063825;28;20488;-53
2021/01/06 00:59:09;;;;;;;16.50;7.85;;;;;;;;;;5074196;28;20033;-53
2021/01/06 01:01:35;;;;;;;13.05;5.85;;;;;;;;;;5065178;28;20047;-53
2021/01/06 01:04:02;;;;;;;16.17;7.13;;;;;;;;;;5057851;28;20025;-51
2021/01/06 01:06:29;;;;;;;12.15;6.05;;;;;;;;;;5058707;28;20025;-52
2021/01/06 01:08:56;;;;;;;11.90;6.38;;;;;;;;;;5056607;28;20029;-51
2021/01/06 01:11:22;;;;;;;11.73;5.55;;;;;;;;;;5056251;28;20078;-51
2021/01/06 01:13:49;;;;;;;9.73;5.40;;;;;;;;;;5066018;28;20483;-51
2021/01/06 01:16:16;;;;;;;11.35;6.00;;;;;;;;;;5072576;28;20473;-54
2021/01/06 01:18:42;;;;;;;10.45;5.57;;;;;;;;;;5074433;28;20071;-53
2021/01/06 01:21:08;;;;;;;11.50;6.25;;;;;;;;;;5074334;28;20024;-53
2021/01/06 01:23:34;;;;;;;13.30;6.20;;;;;;;;;;5074055;28;20035;-52
2021/01/06 01:26:01;;;;;;;14.25;5.90;;;;;;;;;;5074088;28;20078;-53
2021/01/06 01:28:27;;;;;;;9.15;5.57;;;;;;;;;;5074204;28;20046;-55
2021/01/06 01:30:54;;;;;;;10.50;5.40;;;;;;;;;;5074117;28;20028;-55
2021/01/06 01:33:21;;;;;;;12.35;6.55;;;;;;;;;;5073919;28;20036;-54
2021/01/06 01:35:47;;;;;;;9.65;5.47;;;;;;;;;;5074058;28;20033;-54
2021/01/06 01:38:18;;;;;;;9.43;5.43;;;;;;;;;;5073812;28;20024;-54
2021/01/06 01:40:44;;;;;;;9.68;5.90;;;;;;;;;;5073921;28;20024;-54
2021/01/06 01:43:13;;;;;;;11.45;6.65;;;;;;;;;;5072356;28;20311;-54
2021/01/06 01:45:41;;;;;;;13.50;6.97;;;;;;;;;;5069815;28;20510;-54
2021/01/06 01:48:18;;;;;;;13.65;8.15;;;;;;;;;;5073748;28;20032;-54
2021/01/06 01:50:44;;;;;;;11.32;5.93;;;;;;;;;;5073847;28;20035;-54
2021/01/06 01:53:12;;;;;;;11.57;6.38;;;;;;;;;;5073604;28;20032;-54
2021/01/06 01:55:38;;;;;;;13.50;5.75;;;;;;;;;;5074086;28;20439;-55
2021/01/06 01:58:08;;;;;;;13.27;6.30;;;;;;;;;;5073261;28;20357;-53
2021/01/06 02:00:37;;;;;;;8.45;4.97;;;;;;;;;;5065597;28;20021;-53
2021/01/06 02:03:23;;;;;;;11.35;6.03;;;;;;;;;;5059881;28;20362;-55
2021/01/06 02:06:03;;;;;;;13.00;6.40;;;;;;;;;;5055431;28;20029;-53
2021/01/06 02:08:37;;;;;;;12.70;5.95;;;;;;;;;;5068755;28;20047;-55
2021/01/06 02:11:12;;;;;;;10.63;6.28;;;;;;;;;;5064664;28;20025;-53
2021/01/06 02:13:42;;;;;;;11.32;5.40;;;;;;;;;;5066629;28;20013;-53
2021/01/06 02:16:18;;;;;;;11.07;6.18;;;;;;;;;;5064168;28;20063;-53
2021/01/06 02:18:44;;;;;;;15.73;6.50;;;;;;;;;;5057159;28;20376;-53
2021/01/06 02:21:20;;;;;;;12.88;6.68;;;;;;;;;;5054508;28;20525;-55
2021/01/06 02:23:48;;;;;;;18.30;7.25;;;;;;;;;;5055550;28;20033;-54
2021/01/06 02:26:14;;;;;;;17.05;7.50;;;;;;;;;;5055254;28;20033;-56
2021/01/06 02:28:40;;;;;;;19.05;7.53;;;;;;;;;;5073119;28;20028;-55
2021/01/06 02:31:06;;;;;;;15.68;6.35;;;;;;;;;;5073116;28;20376;-55
2021/01/06 02:33:33;;;;;;;10.85;5.20;;;;;;;;;;5073122;28;20052;-54
2021/01/06 02:35:59;;;;;;;9.07;4.90;;;;;;;;;;5073102;28;20532;-55
2021/01/06 02:38:26;;;;;;;9.55;4.22;;;;;;;;;;5061815;28;20078;-55
2021/01/06 02:40:52;;;;;;;10.45;4.82;;;;;;;;;;5068946;28;20123;-54
2021/01/06 02:43:19;;;;;;;11.85;5.72;;;;;;;;;;5072966;28;20020;-54
2021/01/06 02:45:45;;;;;;;13.45;6.70;;;;;;;;;;5072736;28;20027;-60
2021/01/06 02:48:11;;;;;;;16.17;7.82;;;;;;;;;;5072898;28;20024;-55
2021/01/06 02:50:41;;;;;;;13.10;7.40;;;;;;;;;;5072916;28;20023;-54
2021/01/06 02:53:08;;;;;;;26.77;14.13;;;;;;;;;;5072556;28;20024;-55
2021/01/06 02:55:35;;;;;;;20.92;12.13;;;;;;;;;;5072899;28;20048;-54
2021/01/06 02:58:04;;;;;;;12.20;6.28;;;;;;;;;;5072519;28;20380;-55
2021/01/06 03:00:31;;;;;;;16.75;7.60;;;;;;;;;;5072846;28;20043;-56
2021/01/06 03:02:57;;;;;;;15.10;7.10;;;;;;;;;;5072479;28;20020;-55
2021/01/06 03:05:35;;;;;;;19.65;8.10;;;;;;;;;;5072796;28;20052;-54
2021/01/06 03:08:01;;;;;;;16.52;7.60;;;;;;;;;;5072586;28;20149;-55
2021/01/06 03:10:27;;;;;;;15.38;7.43;;;;;;;;;;5072727;28;20024;-56
2021/01/06 03:12:55;;;;;;;19.08;8.35;;;;;;;;;;5072532;28;20056;-54
2021/01/06 03:15:22;;;;;;;19.15;8.98;;;;;;;;;;5072368;28;20033;-55
2021/01/06 03:17:49;;;;;;;17.05;8.80;;;;;;;;;;5072405;28;20037;-54
2021/01/06 03:20:18;;;;;;;13.65;7.88;;;;;;;;;;5071999;28;20031;-55
2021/01/06 03:22:47;;;;;;;20.23;8.70;;;;;;;;;;5072285;28;20013;-55
2021/01/06 03:25:15;;;;;;;13.02;7.45;;;;;;;;;;5072026;28;20127;-54
2021/01/06 03:27:42;;;;;;;14.45;7.53;;;;;;;;;;5072447;28;20487;-56
2021/01/06 03:30:11;;;;;;;15.75;7.00;;;;;;;;;;5066960;28;20024;-56
2021/01/06 03:32:42;;;;;;;18.05;7.80;;;;;;;;;;5072453;28;20035;-54
2021/01/06 03:35:18;;;;;;;15.90;7.20;;;;;;;;;;5072247;28;20028;-54
2021/01/06 03:37:48;;;;;;;15.50;7.22;;;;;;;;;;5072328;28;20039;-56
2021/01/06 03:40:24;;;;;;;14.02;6.85;;;;;;;;;;5072159;28;20129;-56
2021/01/06 03:42:51;;;;;;;18.42;8.45;;;;;;;;;;5072247;28;20480;-54
2021/01/06 03:45:19;;;;;;;12.20;6.80;;;;;;;;;;5072088;28;20052;-54
2021/01/06 03:47:47;;;;;;;13.02;6.80;;;;;;;;;;5072080;28;20013;-55
2021/01/06 03:50:24;;;;;;;13.45;6.55;;;;;;;;;;5072120;28;20091;-54
2021/01/06 03:52:57;;;;;;;13.10;6.68;;;;;;;;;;5071762;28;20021;-55
2021/01/06 03:55:26;;;;;;;11.10;6.30;;;;;;;;;;5072021;28;20047;-55
2021/01/06 03:57:54;;;;;;;37.08;20.48;;;;;;;;;;5071932;28;20021;-54
2021/01/06 04:00:40;;;;;;;21.17;9.95;;;;;;;;;;5072123;28;20415;-54
2021/01/06 04:03:11;;;;;;;28.30;12.25;;;;;;;;;;5071609;28;20376;-54
2021/01/06 04:05:37;;;;;;;33.30;14.73;;;;;;;;;;5072002;28;20074;-54
2021/01/06 04:08:04;;;;;;;35.80;15.20;;;;;;;;;;5071727;28;20044;-54
2021/01/06 04:10:32;;;;;;;18.27;9.60;;;;;;;;;;5071865;28;20074;-55
2021/01/06 04:12:58;;;;;;;14.35;6.80;;;;;;;;;;5071964;28;20052;-55
2021/01/06 04:15:24;;;;;;;11.02;6.35;;;;;;;;;;5071366;28;20082;-54
2021/01/06 04:17:52;;;;;;;13.20;6.63;;;;;;;;;;5071754;28;20102;-55
2021/01/06 04:20:28;;;;;;;11.77;6.57;;;;;;;;;;5071716;28;20020;-55
2021/01/06 04:22:56;;;;;;;11.88;6.20;;;;;;;;;;5071764;28;20145;-54
2021/01/06 04:25:22;;;;;;;13.23;7.20;;;;;;;;;;5071393;28;20456;-55
2021/01/06 04:27:52;;;;;;;29.48;14.65;;;;;;;;;;5071662;28;20035;-54
2021/01/06 04:30:34;;;;;;;28.75;14.63;;;;;;;;;;5071474;28;20024;-56
2021/01/06 04:33:01;;;;;;;11.85;6.38;;;;;;;;;;5074976;28;20103;-54
2021/01/06 04:35:28;;;;;;;8.40;4.22;;;;;;;;;;5075184;28;20041;-53
2021/01/06 04:37:55;;;;;;;7.60;3.95;;;;;;;;;;5075196;28;20017;-57
2021/01/06 04:40:22;;;;;;;8.55;4.05;;;;;;;;;;5075262;28;20035;-55
2021/01/06 04:42:49;;;;;;;8.18;3.60;;;;;;;;;;5075247;28;20024;-54
2021/01/06 04:45:27;;;;;;;9.40;5.28;;;;;;;;;;5075213;28;20024;-57
2021/01/06 04:48:08;;;;;;;24.52;11.38;;;;;;;;;;5061600;28;20025;-53
2021/01/06 04:50:53;;;;;;;56.92;23.20;;;;;;;;;;5074974;28;20020;-54
2021/01/06 04:53:21;;;;;;;57.05;19.27;;;;;;;;;;5074692;28;20044;-54
2021/01/06 04:56:23;;;;;;;75.47;25.77;;;;;;;;;;5074741;28;20040;-54
2021/01/06 04:58:52;;;;;;;77.88;26.13;;;;;;;;;;4973925;28;20050;-53
2021/01/06 05:01:36;;;;;;;80.93;28.17;;;;;;;;;;4973693;28;20030;-55
2021/01/06 05:04:09;;;;;;;49.30;19.95;;;;;;;;;;4973974;28;20033;-56
2021/01/06 05:06:41;;;;;;;15.93;8.10;;;;;;;;;;4973679;28;20379;-54
2021/01/06 05:09:19;;;;;;;21.42;10.48;;;;;;;;;;4974193;28;20135;-54
2021/01/06 05:11:52;;;;;;;9.55;5.45;;;;;;;;;;4970059;28;20051;-55
2021/01/06 05:14:21;;;;;;;12.52;7.40;;;;;;;;;;4954407;28;20389;-55
2021/01/06 05:16:48;;;;;;;14.45;8.50;;;;;;;;;;4954779;28;20590;-54
2021/01/06 05:19:19;;;;;;;7.80;4.28;;;;;;;;;;4954520;28;20043;-55
2021/01/06 05:21:45;;;;;;;6.50;3.90;;;;;;;;;;4962622;28;20407;-54
2021/01/06 05:24:23;;;;;;;5.97;3.45;;;;;;;;;;4962447;28;20105;-52
2021/01/06 05:26:53;;;;;;;8.85;4.63;;;;;;;;;;4958590;28;20042;-53
2021/01/06 05:29:21;;;;;;;8.30;4.80;;;;;;;;;;4957763;28;20107;-53
2021/01/06 05:31:47;;;;;;;11.48;6.30;;;;;;;;;;4966655;28;20472;-52
2021/01/06 05:34:13;;;;;;;8.80;5.25;;;;;;;;;;5068293;28;20040;-55
2021/01/06 05:36:39;;;;;;;18.55;10.43;;;;;;;;;;5074265;28;20021;-53
2021/01/06 05:39:22;;;;;;;14.90;7.65;;;;;;;;;;5074177;28;20082;-56
2021/01/06 05:41:49;;;;;;;14.20;7.68;;;;;;;;;;5073783;28;20031;-54
2021/01/06 05:44:15;;;;;;;16.90;8.85;;;;;;;;;;5074249;28;20650;-55
2021/01/06 05:46:44;;;;;;;17.70;9.82;;;;;;;;;;5074125;28;20029;-54
2021/01/06 05:49:15;;;;;;;36.33;17.63;;;;;;;;;;5074207;28;20047;-54
2021/01/06 05:51:51;;;;;;;9.25;4.38;;;;;;;;;;5072963;28;20069;-54
2021/01/06 05:54:40;;;;;;;5.22;3.00;;;;;;;;;;5069911;28;20029;-56
2021/01/06 05:57:25;;;;;;;6.63;4.47;;;;;;;;;;5042060;28;20056;-55
2021/01/06 05:59:51;;;;;;;15.77;10.13;;;;;;;;;;5051881;28;20029;-54
2021/01/06 06:02:35;;;;;;;20.73;11.98;;;;;;;;;;5051641;28;20039;-54
2021/01/06 06:05:16;;;;;;;14.13;7.88;;;;;;;;;;5051570;28;20550;-54
2021/01/06 06:08:02;;;;;;;15.27;9.30;;;;;;;;;;5051746;28;20401;-53
2021/01/06 06:10:40;;;;;;;18.30;10.48;;;;;;;;;;5051676;28;20057;-56
2021/01/06 06:13:09;;;;;;;11.25;5.85;;;;;;;;;;5051577;28;20037;-54
2021/01/06 06:15:41;;;;;;;8.80;5.43;;;;;;;;;;5051136;28;20052;-54
2021/01/06 06:18:07;;;;;;;12.10;7.28;;;;;;;;;;5051371;28;20021;-55
2021/01/06 06:20:40;;;;;;;16.67;8.43;;;;;;;;;;5051277;28;20040;-55
2021/01/06 06:23:25;;;;;;;14.07;7.25;;;;;;;;;;5051257;28;20560;-55
2021/01/06 06:26:02;;;;;;;11.55;6.60;;;;;;;;;;5051117;28;20061;-55
2021/01/06 06:28:38;;;;;;;15.20;7.95;;;;;;;;;;5051158;28;20036;-55
2021/01/06 06:31:25;;;;;;;13.35;7.85;;;;;;;;;;5051092;28;20472;-54
2021/01/06 06:33:55;;;;;;;18.63;11.98;;;;;;;;;;5059776;28;20106;-55
2021/01/06 06:36:22;;;;;;;37.33;21.33;;;;;;;;;;5073226;28;20131;-54
2021/01/06 06:38:49;;;;;;;39.55;22.73;;;;;;;;;;5072995;28;20020;-54
2021/01/06 06:41:21;;;;;;;28.17;15.52;;;;;;;;;;5073115;28;20063;-54
2021/01/06 06:43:48;;;;;;;;;;;;;;;;;;5073332;28;20028;-55
2021/01/06 06:46:29;;;;;;;37.80;20.80;;;;;;;;;;5072758;28;20388;-55
2021/01/06 06:48:58;;;;;;;26.00;15.63;;;;;;;;;;5072782;28;20466;-54
2021/01/06 06:51:39;;;;;;;54.85;30.20;;;;;;;;;;5072830;28;20103;-54
2021/01/06 06:54:12;;;;;;;46.08;26.75;;;;;;;;;;5055449;28;20040;-56
2021/01/06 06:56:46;;;;;;;38.92;23.30;;;;;;;;;;5072916;28;20044;-55
2021/01/06 06:59:16;;;;;;;52.85;32.90;;;;;;;;;;5072597;28;20038;-54
2021/01/06 07:01:44;;;;;;;44.03;26.77;;;;;;;;;;5072384;28;20025;-54
2021/01/06 07:04:16;;;;;;;40.03;23.27;;;;;;;;;;5072368;28;20107;-54
2021/01/06 07:06:42;;;;;;;14.95;8.05;;;;;;;;;;5072976;28;20067;-55
2021/01/06 07:09:16;;;;;;;13.00;7.07;;;;;;;;;;5072670;28;20115;-54
2021/01/06 07:11:47;;;;;;;8.57;4.65;;;;;;;;;;5072557;28;20017;-54
2021/01/06 07:14:13;;;;;;;8.45;4.68;;;;;;;;;;5072431;28;20472;-54
2021/01/06 07:16:51;;;;;;;9.20;5.28;;;;;;;;;;5072546;28;20062;-55
2021/01/06 07:19:20;;;;;;;9.63;4.80;;;;;;;;;;5072606;28;20052;-54
2021/01/06 07:21:51;;;;;;;17.20;9.75;;;;;;;;;;5058329;28;20028;-54
2021/01/06 07:24:18;;;;;;;16.92;9.23;;;;;;;;;;5072408;28;20041;-54
2021/01/06 07:27:02;;;;;;;15.05;8.35;;;;;;;;;;5072144;28;20047;-56
2021/01/06 07:29:33;;;;;;;11.15;6.43;;;;;;;;;;5072337;28;20029;-56
2021/01/06 07:32:05;;;;;;;9.93;5.88;;;;;;;;;;5072343;28;20020;-56
2021/01/06 07:34:37;;;;;;;9.60;3.95;;;;;;;;;;5072157;28;20056;-56
2021/01/06 07:37:04;;;;;;;5.22;3.30;;;;;;;;;;5071907;28;20055;-57
2021/01/06 07:39:32;;;;;;;6.63;4.40;;;;;;;;;;5072110;28;20025;-57
2021/01/06 07:42:07;;;;;;;9.20;5.35;;;;;;;;;;5071773;28;20064;-56
2021/01/06 07:44:37;;;;;;;7.78;4.00;;;;;;;;;;5070343;28;20021;-54
2021/01/06 07:47:21;;;;;;;6.15;3.40;;;;;;;;;;5071728;28;20099;-55
2021/01/06 07:50:00;;;;;;;5.95;3.35;;;;;;;;;;5072436;28;20016;-55
2021/01/06 07:52:45;;;;;;;7.45;3.70;;;;;;;;;;5071808;28;20384;-55
2021/01/06 07:55:20;;;;;;;7.05;3.67;;;;;;;;;;5071739;28;20044;-55
2021/01/06 07:58:05;;;;;;;7.07;3.58;;;;;;;;;;5072025;28;20050;-55
2021/01/06 08:00:34;;;;;;;12.68;5.15;;;;;;;;;;5071515;28;20035;-56
2021/01/06 08:03:05;;;;;;;11.10;5.10;;;;;;;;;;5071613;28;20017;-55
2021/01/06 08:05:33;;;;;;;15.15;8.15;;;;;;;;;;5072514;28;20021;-54
2021/01/06 08:08:07;;;;;;;14.73;7.28;;;;;;;;;;5075708;28;20537;-55
2021/01/06 08:10:34;;;;;;;21.08;12.30;;;;;;;;;;5072325;28;20032;-59
2021/01/06 08:13:12;;;;;;;20.10;11.02;;;;;;;;;;5075589;28;20017;-53
2021/01/06 08:15:38;;;;;;;11.65;6.93;;;;;;;;;;5075319;28;20048;-53
2021/01/06 08:18:10;;;;;;;11.98;6.72;;;;;;;;;;5075311;28;20024;-53
2021/01/06 08:20:38;;;;;;;14.10;8.15;;;;;;;;;;5075531;28;20032;-53
2021/01/06 08:23:04;;;;;;;11.68;7.63;;;;;;;;;;5075093;28;20020;-52
2021/01/06 08:25:33;;;;;;;19.52;11.48;;;;;;;;;;5075542;28;20056;-55
2021/01/06 08:27:59;;;;;;;12.00;7.32;;;;;;;;;;5075278;28;20059;-54
2021/01/06 08:30:29;;;;;;;10.43;5.43;;;;;;;;;;5065514;28;20029;-56
2021/01/06 08:33:04;;;;;;;12.60;6.70;;;;;;;;;;5073257;28;20055;-51
2021/01/06 08:35:32;;;;;;;10.25;5.78;;;;;;;;;;5074950;28;20127;-54
2021/01/06 08:37:58;;;;;;;10.32;6.13;;;;;;;;;;5075612;28;20027;-55
2021/01/06 08:40:32;;;;;;;7.78;4.28;;;;;;;;;;5075432;28;20055;-56
2021/01/06 08:42:59;;;;;;;13.65;7.97;;;;;;;;;;5073428;28;20021;-53
2021/01/06 08:45:27;;;;;;;12.50;7.43;;;;;;;;;;5074374;28;20028;-54
2021/01/06 08:47:53;;;;;;;8.23;4.60;;;;;;;;;;5074357;28;20055;-56
2021/01/06 08:50:31;;;;;;;13.02;8.02;;;;;;;;;;5075071;28;20028;-54
2021/01/06 08:52:59;;;;;;;8.88;6.25;;;;;;;;;;5074340;28;20028;-54
2021/01/06 08:55:28;;;;;;;15.73;9.20;;;;;;;;;;5079046;28;20058;-54
2021/01/06 08:57:59;;;;;;;14.32;9.05;;;;;;;;;;5081440;28;20063;-56
2021/01/06 09:00:30;;;;;;;18.10;9.23;;;;;;;;;;5074730;28;20461;-55
2021/01/06 09:02:57;;;;;;;26.23;11.60;;;;;;;;;;5074625;28;20025;-54
2021/01/06 09:05:42;;;;;;;38.85;15.30;;;;;;;;;;5074659;28;20032;-56
2021/01/06 09:08:20;;;;;;;31.35;16.45;;;;;;;;;;5074745;28;20085;-54
2021/01/06 09:10:50;;;;;;;22.15;11.20;;;;;;;;;;5070258;28;20460;-55
2021/01/06 09:13:18;;;;;;;20.02;10.38;;;;;;;;;;5074797;28;20024;-54
2021/01/06 09:15:56;;;;;;;25.02;12.73;;;;;;;;;;5074538;28;20123;-53
2021/01/06 09:18:22;;;;;;;19.08;10.20;;;;;;;;;;5073644;28;20057;-54
2021/01/06 09:21:01;;;;;;;32.22;15.95;;;;;;;;;;5074602;28;20016;-54
2021/01/06 09:23:28;;;;;;;15.18;9.20;;;;;;;;;;5074736;28;20043;-55
2021/01/06 09:25:55;;;;;;;26.05;12.80;;;;;;;;;;5074216;28;20063;-54
2021/01/06 09:28:21;;;;;;;21.88;11.43;;;;;;;;;;5065770;28;20601;-53
2021/01/06 09:30:48;;;;;;;15.25;10.02;;;;;;;;;;5075237;28;20032;-54
2021/01/06 09:33:22;;;;;;;15.73;10.75;;;;;;;;;;5076123;28;20051;-55
2021/01/06 09:35:49;;;;;;;15.73;8.75;;;;;;;;;;5073174;28;20037;-55
2021/01/06 09:38:27;;;;;;;16.55;8.48;;;;;;;;;;5069636;28;20123;-55
2021/01/06 09:40:55;;;;;;;15.88;9.15;;;;;;;;;;5070997;28;20353;-54
2021/01/06 09:43:37;;;;;;;19.33;9.95;;;;;;;;;;5074302;28;20031;-55
2021/01/06 09:46:04;;;;;;;19.15;9.90;;;;;;;;;;5072716;28;20495;-55
2021/01/06 09:48:30;;;;;;;10.57;6.25;;;;;;;;;;5074005;28;20032;-54
2021/01/06 09:50:58;;;;;;;12.32;6.43;;;;;;;;;;5073749;28;20024;-55
2021/01/06 09:53:26;;;;;;;10.23;5.63;;;;;;;;;;5064312;28;20036;-54
2021/01/06 09:55:53;;;;;;;16.73;8.70;;;;;;;;;;5067156;28;20040;-54
2021/01/06 09:58:22;;;;;;;14.30;8.50;;;;;;;;;;5073807;28;20024;-55
2021/01/06 10:01:00;;;;;;;9.13;5.15;;;;;;;;;;5073913;28;20021;-55
2021/01/06 10:03:30;;;;;;;8.05;4.60;;;;;;;;;;5073711;28;20025;-55
2021/01/06 10:06:04;;;;;;;14.27;8.65;;;;;;;;;;5073530;28;20050;-54
2021/01/06 10:08:39;;;;;;;15.18;8.32;;;;;;;;;;5073495;28;20028;-54
2021/01/06 10:11:13;;;;;;;12.13;9.23;;;;;;;;;;5056098;28;20054;-55
2021/01/06 10:14:02;;;;;;;11.18;6.70;;;;;;;;;;5055727;28;20100;-56
2021/01/06 10:16:34;;;;;;;9.27;4.63;;;;;;;;;;4954155;28;20166;-56
2021/01/06 10:19:03;;;;;;;14.02;7.00;;;;;;;;;;4953355;28;20138;-53
2021/01/06 10:21:34;;;;;;;10.63;6.22;;;;;;;;;;4952405;28;20047;-52
2021/01/06 10:24:39;;;;;;;14.32;6.60;;;;;;;;;;4970106;28;20050;-55
2021/01/06 10:27:05;;;;;;;14.75;9.98;;;;;;;;;;4894904;29;20457;-53
2021/01/06 10:29:33;;;;;;;16.75;9.25;;;;;;;;;;4895439;29;20032;-53
2021/01/06 10:32:06;;;;;;;9.00;5.20;;;;;;;;;;4895471;29;20040;-55
2021/01/06 10:34:39;;;;;;;10.43;6.07;;;;;;;;;;4895869;29;20055;-54
2021/01/06 10:37:06;;;;;;;9.57;5.82;;;;;;;;;;4895475;29;20393;-54
2021/01/06 10:39:43;;;;;;;12.43;7.03;;;;;;;;;;4895521;29;20481;-54
2021/01/06 10:42:17;;;;;;;10.73;7.22;;;;;;;;;;4895246;29;20059;-53
2021/01/06 10:44:52;;;;;;;6.65;4.07;;;;;;;;;;4885076;29;20125;-52
2021/01/06 10:47:28;;;;;;;8.55;4.10;;;;;;;;;;4877482;29;20468;-53
2021/01/06 10:49:56;;;;;;;10.98;7.30;;;;;;;;;;4878123;29;20029;-54
2021/01/06 10:52:23;;;;;;;9.60;7.22;;;;;;;;;;4880119;28;20141;-51
2021/01/06 10:54:54;;;;;;;12.00;8.60;;;;;;;;;;4953641;28;20050;-54
2021/01/06 10:57:26;;;;;;;13.43;8.43;;;;;;;;;;4982017;28;20374;-55
2021/01/06 11:00:11;;;;;;;5.55;4.32;;;;;;;;;;5054300;28;20029;-57
2021/01/06 11:02:37;;;;;;;9.90;4.78;;;;;;;;;;5057312;28;20075;-56
2021/01/06 11:05:16;;;;;;;5.82;3.85;;;;;;;;;;5070001;28;20017;-53
2021/01/06 11:07:47;;;;;;;5.13;3.45;;;;;;;;;;5073152;28;20089;-55
2021/01/06 11:10:14;;;;;;;;;;;;;;;;;;5071203;28;20063;-53
2021/01/06 11:12:46;;;;;;;7.35;4.40;;;;;;;;;;5053442;28;20391;-52
2021/01/06 11:15:18;;;;;;;10.77;4.75;;;;;;;;;;5056094;28;20040;-53
2021/01/06 11:17:45;;;;;;;8.88;5.45;;;;;;;;;;5070108;28;20016;-55
2021/01/06 11:20:26;;;;;;;9.60;5.25;;;;;;;;;;5072170;28;20032;-56
2021/01/06 11:22:52;;;;;;;;;;;;;;;;;;5072523;28;20032;-55
2021/01/06 11:25:39;;;;;;;6.63;3.78;;;;;;;;;;5071842;28;19920;-55
2021/01/06 11:28:05;;;;;;;7.10;3.15;;;;;;;;;;5071664;28;20353;-56
2021/01/06 11:30:33;;;;;;;8.02;3.20;;;;;;;;;;5070185;28;20108;-57
2021/01/06 11:33:15;;;;;;;7.15;3.40;;;;;;;;;;5060670;28;20031;-58
2021/01/06 11:35:41;;;;;;;;;;;;;;;;;;5071021;28;20032;-55
2021/01/06 11:38:27;;;;;;;7.70;4.65;;;;;;;;;;5067011;28;19916;-56
2021/01/06 11:40:53;;;;;;;10.10;4.50;;;;;;;;;;5065131;28;20056;-55
2021/01/06 11:43:38;;;;;;;8.80;5.13;;;;;;;;;;5070633;28;20926;-55
2021/01/06 11:46:22;;;;;;;9.73;7.03;;;;;;;;;;5070132;28;20048;-54
2021/01/06 11:48:50;;;;;;;7.28;3.88;;;;;;;;;;5057687;28;20032;-55
2021/01/06 11:51:24;;;;;;;13.45;7.53;;;;;;;;;;5054356;28;20029;-54
2021/01/06 11:54:22;;;;;;;6.97;3.58;;;;;;;;;;5052161;28;20059;-55
2021/01/06 11:56:49;;;;;;;8.70;5.78;;;;;;;;;;4969334;28;20672;-58
2021/01/06 11:59:38;;;;;;;6.93;3.47;;;;;;;;;;4969732;28;20052;-55
2021/01/06 12:02:10;;;;;;;4.72;2.70;;;;;;;;;;4968938;28;20038;-58
2021/01/06 12:04:46;;;;;;;7.75;4.75;;;;;;;;;;4968369;28;20027;-56
2021/01/06 12:07:33;;;;;;;7.43;5.78;;;;;;;;;;4969709;28;20534;-55
2021/01/06 12:09:59;;;;;;;10.27;5.55;;;;;;;;;;4969245;28;20376;-55
2021/01/06 12:12:25;;;;;;;8.82;4.40;;;;;;;;;;4969775;28;20058;-53
2021/01/06 12:15:03;;;;;;;5.03;2.95;;;;;;;;;;4970587;28;20074;-55
2021/01/06 12:17:53;;;;;;;9.75;4.53;;;;;;;;;;4970567;28;20026;-54
2021/01/06 12:20:23;;;;;;;6.78;3.55;;;;;;;;;;4923414;29;20048;-54
2021/01/06 12:23:08;;;;;;;7.20;4.90;;;;;;;;;;4913486;29;20039;-54
2021/01/06 12:25:43;;;;;;;8.45;4.55;;;;;;;;;;4913668;29;20731;-56
2021/01/06 12:28:15;;;;;;;10.23;5.85;;;;;;;;;;4912273;29;20052;-55
2021/01/06 12:30:43;;;;;;;12.48;5.68;;;;;;;;;;4915326;29;20551;-54
2021/01/06 12:33:16;;;;;;;8.38;4.15;;;;;;;;;;4974883;28;20034;-54
2021/01/06 12:35:43;;;;;;;11.48;4.57;;;;;;;;;;4988982;28;20401;-54
2021/01/06 12:38:15;;;;;;;11.75;7.88;;;;;;;;;;4988259;28;20038;-55
2021/01/06 12:40:56;;;;;;;6.60;4.68;;;;;;;;;;4990048;28;20235;-55
2021/01/06 12:43:26;;;;;;;5.38;3.20;;;;;;;;;;4989987;28;20038;-54
2021/01/06 12:46:22;;;;;;;9.77;4.60;;;;;;;;;;4989896;28;20022;-55
2021/01/06 12:48:57;;;;;;;8.60;5.20;;;;;;;;;;4989688;28;20054;-54
2021/01/06 12:51:25;;;;;;;9.32;3.92;;;;;;;;;;4989413;28;20121;-51
2021/01/06 12:54:02;;;;;;;7.28;3.40;;;;;;;;;;4999995;28;20026;-56
2021/01/06 12:56:40;;;;;;;6.80;3.20;;;;;;;;;;5006868;28;20055;-57
2021/01/06 12:59:10;;;;;;;8.60;3.88;;;;;;;;;;5074882;28;20055;-54
2021/01/06 13:01:45;;;;;;;8.95;3.83;;;;;;;;;;5074896;28;20028;-58
2021/01/06 13:04:13;;;;;;;7.00;3.63;;;;;;;;;;5074568;28;20029;-55
2021/01/06 13:06:42;;;;;;;6.05;3.25;;;;;;;;;;5074875;28;20024;-54
2021/01/06 13:09:08;;;;;;;17.85;9.50;;;;;;;;;;5067351;28;20027;-51
2021/01/06 13:11:38;;;;;;;12.02;6.40;;;;;;;;;;5074736;28;20016;-53
2021/01/06 13:14:22;;;;;;;11.40;4.72;;;;;;;;;;5072010;28;20108;-54
2021/01/06 13:16:59;;;;;;;11.77;4.53;;;;;;;;;;5073920;28;20103;-53
2021/01/06 13:19:28;;;;;;;13.95;5.57;;;;;;;;;;5074254;28;20027;-54
2021/01/06 13:22:01;;;;;;;10.73;4.20;;;;;;;;;;5074218;28;20027;-54
2021/01/06 13:24:29;;;;;;;7.78;2.40;;;;;;;;;;5071448;28;20048;-55
2021/01/06 13:27:00;;;;;;;9.45;3.72;;;;;;;;;;5070123;28;20084;-52
2021/01/06 13:29:29;;;;;;;11.07;3.40;;;;;;;;;;5073313;28;20384;-55
2021/01/06 13:32:09;;;;;;;8.35;4.30;;;;;;;;;;5073899;28;20078;-52
2021/01/06 13:34:47;;;;;;;6.95;3.60;;;;;;;;;;5073738;28;20090;-55
2021/01/06 13:37:13;;;;;;;8.82;5.45;;;;;;;;;;5074380;28;20070;-55
2021/01/06 13:39:39;;;;;;;10.93;4.57;;;;;;;;;;5073842;28;20017;-54
2021/01/06 13:42:24;;;;;;;12.18;6.18;;;;;;;;;;5072986;28;20082;-55
2021/01/06 13:44:51;;;;;;;10.88;5.50;;;;;;;;;;5073018;28;20028;-55
2021/01/06 13:47:21;;;;;;;11.48;6.68;;;;;;;;;;5074255;28;20035;-52
2021/01/06 13:49:59;;;;;;;17.27;7.32;;;;;;;;;;5074014;28;20059;-55
2021/01/06 13:52:25;;;;;;;15.68;6.10;;;;;;;;;;5073972;28;20044;-56
2021/01/06 13:54:55;;;;;;;22.70;7.68;;;;;;;;;;5064138;28;20033;-54
2021/01/06 13:57:28;;;;;;;16.13;5.10;;;;;;;;;;5053822;28;20471;-53
2021/01/06 14:00:01;;;;;;;27.48;11.05;;;;;;;;;;5055148;28;20128;-51
2021/01/06 14:02:35;;;;;;;22.10;9.77;;;;;;;;;;5066250;28;20468;-54
2021/01/06 14:05:03;;;;;;;14.38;4.47;;;;;;;;;;5069375;28;20422;-55
2021/01/06 14:07:38;;;;;;;26.20;14.35;;;;;;;;;;5073607;28;20040;-56
2021/01/06 14:10:16;;;;;;;25.05;13.20;;;;;;;;;;5064078;28;20464;-52
2021/01/06 14:13:06;;;;;;;13.52;6.50;;;;;;;;;;5064039;28;20044;-55
2021/01/06 14:15:51;;;;;;;14.95;5.78;;;;;;;;;;5054985;28;20151;-52
2021/01/06 14:18:26;;;;;;;22.13;7.53;;;;;;;;;;5057759;28;20021;-53
2021/01/06 14:20:56;;;;;;;49.20;28.88;;;;;;;;;;5071127;28;20511;-54
2021/01/06 14:23:40;;;;;;;18.75;6.75;;;;;;;;;;5059966;28;20056;-52
2021/01/06 14:26:20;;;;;;;19.55;6.82;;;;;;;;;;5071975;28;20041;-54
2021/01/06 14:28:52;;;;;;;21.17;11.13;;;;;;;;;;5073415;28;20049;-53
2021/01/06 14:31:35;;;;;;;16.92;7.47;;;;;;;;;;5072927;28;20179;-54
2021/01/06 14:34:01;;;;;;;27.42;10.07;;;;;;;;;;5070615;28;20050;-53
2021/01/06 14:36:27;;;;;;;34.78;17.90;;;;;;;;;;5071298;28;20487;-52
2021/01/06 14:39:02;;;;;;;26.52;10.98;;;;;;;;;;5059719;28;20025;-55
2021/01/06 14:41:36;;;;;;;23.35;10.73;;;;;;;;;;5062681;28;20134;-52
2021/01/06 14:44:21;;;;;;;28.95;13.43;;;;;;;;;;5067656;28;20195;-56
2021/01/06 14:46:59;;;;;;;39.75;16.70;;;;;;;;;;5072525;28;20020;-53
2021/01/06 14:49:30;;;;;;;30.85;15.68;;;;;;;;;;5069215;28;20033;-53
2021/01/06 14:52:02;;;;;;;32.33;15.32;;;;;;;;;;5072611;28;20054;-52
2021/01/06 14:54:47;;;;;;;28.70;13.60;;;;;;;;;;5072638;28;20036;-53
2021/01/06 14:57:22;;;;;;;27.60;14.20;;;;;;;;;;5068054;28;20048;-51